createdAt,value
2018-07-16T00:02:10.905Z,90.00
2018-07-16T00:04:38.090Z,90.10
2018-07-16T00:07:05.517Z,89.90
2018-07-16T00:09:32.717Z,90.00
2018-07-16T00:11:59.914Z,90.00
2018-07-16T00:14:29.010Z,89.80
2018-07-16T00:16:56.309Z,90.30
2018-07-16T00:19:23.460Z,89.80
2018-07-16T00:21:50.621Z,89.10
2018-07-16T00:24:17.823Z,89.60
2018-07-16T00:26:45.022Z,89.60
2018-07-16T00:29:12.293Z,89.50
2018-07-16T00:31:39.483Z,90.10
2018-07-16T00:34:06.658Z,90.30
2018-07-16T00:36:33.817Z,90.60
2018-07-16T00:39:00.997Z,90.80
2018-07-16T00:41:28.157Z,90.40
2018-07-16T00:43:55.357Z,90.70
2018-07-16T00:46:22.525Z,91.00
2018-07-16T00:48:49.693Z,91.00
2018-07-16T00:51:16.858Z,90.50
2018-07-16T00:53:44.116Z,90.30
2018-07-16T00:56:11.282Z,90.20
2018-07-16T00:58:38.469Z,90.20
2018-07-16T01:01:05.953Z,88.90
2018-07-16T01:03:33.125Z,89.20
2018-07-16T01:06:00.289Z,90.00
2018-07-16T01:08:27.481Z,88.60
2018-07-16T01:10:54.825Z,88.50
2018-07-16T01:13:21.993Z,89.20
2018-07-16T01:15:49.197Z,89.50
2018-07-16T01:18:16.389Z,89.80
2018-07-16T01:20:43.585Z,90.30
2018-07-16T01:23:10.877Z,90.20
2018-07-16T01:25:38.058Z,89.90
2018-07-16T01:30:32.551Z,90.60
2018-07-16T01:32:59.744Z,90.80
2018-07-16T01:35:27.140Z,91.00
2018-07-16T01:37:54.325Z,90.70
2018-07-16T01:40:21.501Z,90.40
2018-07-16T01:42:48.668Z,90.50
2018-07-16T01:45:15.945Z,90.50
2018-07-16T01:47:43.117Z,90.60
2018-07-16T01:50:10.293Z,90.50
2018-07-16T01:52:37.840Z,90.30
2018-07-16T01:55:05.029Z,90.10
2018-07-16T01:57:32.205Z,89.90
2018-07-16T01:59:59.452Z,89.20
2018-07-16T02:02:26.686Z,89.40
2018-07-16T02:04:53.868Z,89.50
2018-07-16T02:07:21.033Z,90.40
2018-07-16T02:09:48.382Z,90.70
2018-07-16T02:12:15.653Z,91.00
2018-07-16T02:14:42.820Z,91.40
2018-07-16T02:17:10.188Z,91.40
2018-07-16T02:19:37.377Z,91.60
2018-07-16T02:22:04.583Z,91.30
2018-07-16T02:24:31.761Z,91.10
2018-07-16T02:26:58.921Z,91.30
2018-07-16T02:29:26.142Z,91.40
2018-07-16T02:31:53.329Z,91.10
2018-07-16T02:34:20.510Z,90.30
2018-07-16T02:36:47.680Z,90.30
2018-07-16T02:39:14.964Z,90.20
2018-07-16T02:41:42.136Z,90.00
2018-07-16T02:44:09.314Z,90.00
2018-07-16T02:46:36.505Z,90.50
2018-07-16T02:49:03.708Z,90.10
2018-07-16T02:51:30.897Z,90.00
2018-07-16T02:53:58.111Z,89.70
2018-07-16T02:56:25.384Z,89.70
2018-07-16T02:58:52.597Z,89.50
2018-07-16T03:01:19.777Z,89.20
2018-07-16T03:03:46.997Z,88.80
2018-07-16T03:06:14.181Z,88.60
2018-07-16T03:08:41.377Z,89.10
2018-07-16T03:11:08.554Z,89.10
2018-07-16T03:13:35.742Z,88.90
2018-07-16T03:16:02.945Z,89.70
2018-07-16T03:20:57.333Z,90.50
2018-07-16T03:23:24.542Z,90.80
2018-07-16T03:25:51.729Z,90.50
2018-07-16T03:28:18.929Z,90.70
2018-07-16T03:30:46.105Z,90.50
2018-07-16T03:33:13.360Z,90.60
2018-07-16T03:35:40.562Z,90.20
2018-07-16T03:38:07.736Z,90.70
2018-07-16T03:40:34.909Z,90.50
2018-07-16T03:43:02.091Z,90.90
2018-07-16T03:45:29.298Z,90.90
2018-07-16T03:47:56.519Z,91.00
2018-07-16T03:50:23.641Z,90.80
2018-07-16T03:52:50.843Z,90.80
2018-07-16T03:55:18.046Z,91.10
2018-07-16T03:57:45.241Z,90.80
2018-07-16T04:00:12.474Z,90.80
2018-07-16T04:02:39.657Z,91.00
2018-07-16T04:05:06.905Z,90.80
2018-07-16T04:07:34.056Z,90.60
2018-07-16T04:10:01.225Z,90.30
2018-07-16T04:12:28.404Z,90.30
2018-07-16T04:14:55.592Z,90.20
2018-07-16T04:17:22.777Z,90.10
2018-07-16T04:19:49.964Z,89.70
2018-07-16T04:22:17.132Z,90.30
2018-07-16T04:24:44.333Z,89.80
2018-07-16T04:27:11.521Z,90.00
2018-07-16T04:29:38.709Z,90.10
2018-07-16T04:32:05.908Z,90.30
2018-07-16T04:34:33.073Z,90.40
2018-07-16T04:37:00.238Z,90.70
2018-07-16T04:39:27.425Z,91.00
2018-07-16T04:41:54.613Z,91.00
2018-07-16T04:44:21.788Z,90.70
2018-07-16T04:46:48.977Z,90.60
2018-07-16T04:49:16.152Z,90.80
2018-07-16T04:51:43.341Z,90.70
2018-07-16T04:54:10.517Z,90.70
2018-07-16T04:56:37.709Z,90.40
2018-07-16T04:59:04.916Z,90.40
2018-07-16T05:01:32.109Z,90.40
2018-07-16T05:03:59.280Z,90.40
2018-07-16T05:06:26.465Z,90.60
2018-07-16T05:08:53.641Z,90.50
2018-07-16T05:11:20.809Z,90.40
2018-07-16T05:16:15.169Z,90.30
2018-07-16T05:18:42.383Z,90.60
2018-07-16T05:23:36.744Z,91.20
2018-07-16T05:26:03.924Z,91.20
2018-07-16T05:28:31.102Z,91.10
2018-07-16T05:30:58.313Z,91.20
2018-07-16T05:33:25.474Z,91.30
2018-07-16T05:35:52.645Z,91.30
2018-07-16T05:38:19.910Z,91.20
2018-07-16T05:40:47.028Z,91.20
2018-07-16T05:43:14.197Z,90.30
2018-07-16T05:45:41.368Z,89.50
2018-07-16T05:48:08.555Z,88.00
2018-07-16T05:50:35.760Z,87.40
2018-07-16T05:53:02.978Z,88.20
2018-07-16T05:55:30.316Z,89.20
2018-07-16T05:57:57.601Z,89.00
2018-07-16T06:00:24.770Z,89.30
2018-07-16T06:02:52.014Z,89.70
2018-07-16T06:05:19.360Z,89.90
2018-07-16T06:07:46.661Z,90.10
2018-07-16T06:10:14.036Z,90.00
2018-07-16T06:12:41.370Z,90.00
2018-07-16T06:15:08.705Z,90.10
2018-07-16T06:17:35.937Z,90.10
2018-07-16T06:20:06.057Z,89.70
2018-07-16T06:22:33.266Z,90.00
2018-07-16T06:25:00.473Z,90.10
2018-07-16T06:27:27.785Z,89.40
2018-07-16T06:29:55.052Z,87.90
2018-07-16T06:32:22.295Z,86.50
2018-07-16T06:34:49.581Z,82.60
2018-07-16T06:37:16.786Z,82.00
2018-07-16T06:39:44.430Z,84.70
2018-07-16T06:42:11.541Z,85.60
2018-07-16T06:44:38.741Z,85.90
2018-07-16T06:47:06.066Z,85.50
2018-07-16T06:49:33.376Z,86.80
2018-07-16T06:52:00.556Z,86.90
2018-07-16T06:54:27.786Z,86.80
2018-07-16T06:56:54.969Z,86.50
2018-07-16T06:59:22.175Z,87.30
2018-07-16T07:01:49.504Z,88.20
2018-07-16T07:04:16.660Z,89.70
2018-07-16T07:06:43.882Z,89.80
2018-07-16T07:09:11.085Z,90.20
2018-07-16T07:11:38.261Z,90.40
2018-07-16T07:14:05.497Z,90.50
2018-07-16T07:16:32.941Z,88.00
2018-07-16T07:19:00.134Z,88.80
2018-07-16T07:23:54.653Z,87.30
2018-07-16T07:26:21.825Z,87.50
2018-07-16T07:28:49.005Z,86.60
2018-07-16T07:31:16.194Z,87.70
2018-07-16T07:33:43.401Z,85.80
2018-07-16T07:36:10.605Z,85.90
2018-07-16T07:38:37.791Z,85.70
2018-07-16T07:41:05.160Z,80.10
2018-07-16T07:43:32.308Z,76.90
2018-07-16T07:45:59.497Z,80.00
2018-07-16T07:48:26.761Z,79.60
2018-07-16T07:50:53.965Z,80.60
2018-07-16T07:53:21.133Z,79.80
2018-07-16T07:55:48.352Z,78.30
2018-07-16T07:58:15.517Z,77.80
2018-07-16T08:00:42.696Z,77.20
2018-07-16T08:05:37.060Z,75.70
2018-07-16T08:08:04.436Z,70.80
2018-07-16T08:10:31.692Z,71.00
2018-07-16T08:12:58.830Z,73.20
2018-07-16T08:15:26.033Z,68.90
2018-07-16T08:17:53.265Z,71.50
2018-07-16T08:20:20.457Z,73.00
2018-07-16T08:22:47.648Z,72.30
2018-07-16T08:25:14.872Z,71.50
2018-07-16T08:27:42.065Z,69.70
2018-07-16T08:30:09.266Z,71.60
2018-07-16T08:35:04.051Z,70.90
2018-07-16T08:37:31.236Z,70.10
2018-07-16T08:39:58.530Z,69.80
2018-07-16T08:42:25.762Z,66.90
2018-07-16T08:44:52.952Z,65.60
2018-07-16T08:47:20.160Z,68.60
2018-07-16T08:49:47.334Z,66.50
2018-07-16T08:52:14.530Z,67.00
2018-07-16T08:54:41.717Z,68.50
2018-07-16T08:57:09.121Z,65.30
2018-07-16T08:59:36.303Z,67.60
2018-07-16T09:02:03.500Z,64.40
2018-07-16T09:04:30.657Z,65.70
2018-07-16T09:06:57.857Z,66.40
2018-07-16T09:09:25.017Z,64.80
2018-07-16T09:11:52.336Z,61.40
2018-07-16T09:14:19.521Z,63.80
2018-07-16T09:19:14.004Z,64.60
2018-07-16T09:21:41.112Z,62.40
2018-07-16T09:26:35.546Z,58.90
2018-07-16T09:29:02.745Z,61.20
2018-07-16T09:31:29.914Z,58.60
2018-07-16T09:33:57.073Z,58.50
2018-07-16T09:36:24.269Z,60.60
2018-07-16T09:38:51.503Z,59.10
2018-07-16T09:41:18.657Z,51.20
2018-07-16T09:43:45.858Z,52.40
2018-07-16T09:46:13.105Z,50.50
2018-07-16T09:48:40.270Z,51.60
2018-07-16T09:51:07.591Z,51.00
2018-07-16T09:53:34.760Z,45.30
2018-07-16T09:56:01.926Z,47.20
2018-07-16T09:58:29.101Z,47.50
2018-07-16T10:01:01.897Z,51.10
2018-07-16T10:03:29.073Z,45.70
2018-07-16T10:05:56.298Z,44.70
2018-07-16T10:08:23.542Z,44.10
2018-07-16T10:10:50.673Z,45.10
2018-07-16T10:13:17.881Z,45.10
2018-07-16T10:15:45.041Z,46.70
2018-07-16T10:18:12.217Z,41.20
2018-07-16T10:20:39.588Z,42.00
2018-07-16T10:23:06.605Z,41.90
2018-07-16T10:25:33.784Z,42.40
2018-07-16T10:28:00.956Z,41.70
2018-07-16T10:30:28.145Z,44.30
2018-07-16T10:32:55.324Z,40.30
2018-07-16T10:35:22.485Z,41.00
2018-07-16T10:37:49.673Z,40.00
2018-07-16T10:40:16.863Z,43.00
2018-07-16T10:42:44.060Z,41.70
2018-07-16T10:45:11.234Z,39.50
2018-07-16T10:47:38.418Z,38.00
2018-07-16T10:50:05.781Z,36.70
2018-07-16T10:52:32.972Z,38.50
2018-07-16T10:55:00.142Z,39.50
2018-07-16T10:57:27.347Z,38.50
2018-07-16T10:59:54.526Z,38.30
2018-07-16T11:02:21.741Z,37.40
2018-07-16T11:04:48.933Z,38.80
2018-07-16T11:07:16.105Z,36.50
2018-07-16T11:09:43.304Z,39.90
2018-07-16T11:12:10.593Z,38.70
2018-07-16T11:14:37.753Z,40.30
2018-07-16T11:17:04.948Z,38.70
2018-07-16T11:19:32.110Z,36.40
2018-07-16T11:21:59.351Z,37.70
2018-07-16T11:24:26.517Z,41.90
2018-07-16T11:26:53.708Z,39.70
2018-07-16T11:29:20.866Z,42.40
2018-07-16T11:31:48.025Z,39.40
2018-07-16T11:34:15.208Z,38.00
2018-07-16T11:36:42.396Z,38.80
2018-07-16T11:39:09.581Z,40.30
2018-07-16T11:41:36.928Z,39.60
2018-07-16T11:44:04.153Z,37.70
2018-07-16T11:46:31.381Z,38.90
2018-07-16T11:48:58.552Z,37.00
2018-07-16T11:51:25.733Z,37.80
2018-07-16T11:53:52.937Z,35.00
2018-07-16T11:56:20.109Z,36.90
2018-07-16T11:58:47.433Z,41.50
2018-07-16T12:01:14.618Z,39.20
2018-07-16T12:03:41.817Z,39.80
2018-07-16T12:06:14.647Z,38.30
2018-07-16T12:08:41.826Z,44.20
2018-07-16T12:11:09.004Z,44.40
2018-07-16T12:13:36.197Z,46.30
2018-07-16T12:16:03.367Z,45.00
2018-07-16T12:18:31.102Z,44.30
2018-07-16T12:20:58.260Z,46.60
2018-07-16T12:23:25.429Z,43.90
2018-07-16T12:25:52.609Z,40.80
2018-07-16T12:28:19.898Z,44.70
2018-07-16T12:30:47.140Z,44.70
2018-07-16T12:33:14.317Z,44.30
2018-07-16T12:35:41.481Z,43.50
2018-07-16T12:38:08.661Z,40.40
2018-07-16T12:40:35.967Z,42.20
2018-07-16T12:43:03.157Z,42.80
2018-07-16T12:45:30.600Z,45.00
2018-07-16T12:47:57.781Z,44.90
2018-07-16T12:50:24.988Z,42.00
2018-07-16T12:52:52.183Z,36.80
2018-07-16T12:55:19.343Z,40.20
2018-07-16T12:57:46.519Z,43.90
2018-07-16T13:00:13.808Z,43.30
2018-07-16T13:02:41.288Z,41.80
2018-07-16T13:05:08.472Z,42.80
2018-07-16T13:07:35.678Z,43.70
2018-07-16T13:10:02.868Z,45.70
2018-07-16T13:12:30.102Z,40.60
2018-07-16T13:14:57.286Z,40.80
2018-07-16T13:17:24.485Z,43.60
2018-07-16T13:19:51.766Z,42.00
2018-07-16T13:22:18.929Z,35.60
2018-07-16T13:27:13.300Z,39.70
2018-07-16T13:29:40.477Z,39.60
2018-07-16T13:32:07.677Z,42.00
2018-07-16T13:34:34.933Z,41.60
2018-07-16T13:37:02.155Z,40.00
2018-07-16T13:39:29.292Z,43.50
2018-07-16T13:41:56.449Z,44.50
2018-07-16T13:44:23.618Z,44.90
2018-07-16T13:46:50.889Z,47.10
2018-07-16T13:49:18.029Z,45.80
2018-07-16T13:51:45.213Z,46.70
2018-07-16T13:54:12.408Z,44.90
2018-07-16T13:56:39.573Z,39.70
2018-07-16T13:59:06.778Z,47.00
2018-07-16T14:01:34.034Z,43.30
2018-07-16T14:04:01.207Z,43.70
2018-07-16T14:06:28.638Z,44.00
2018-07-16T14:08:55.817Z,48.50
2018-07-16T14:11:22.977Z,47.10
2018-07-16T14:13:50.333Z,44.80
2018-07-16T14:16:17.697Z,43.40
2018-07-16T14:18:51.761Z,45.40
2018-07-16T14:21:18.996Z,42.20
2018-07-16T14:23:46.168Z,48.60
2018-07-16T14:26:13.347Z,46.60
2018-07-16T14:28:40.520Z,45.60
2018-07-16T14:31:07.754Z,44.30
2018-07-16T14:33:34.889Z,45.40
2018-07-16T14:36:02.192Z,50.30
2018-07-16T14:38:29.368Z,43.70
2018-07-16T14:40:56.556Z,44.90
2018-07-16T14:43:23.728Z,46.10
2018-07-16T14:45:50.885Z,52.30
2018-07-16T14:48:18.066Z,49.80
2018-07-16T14:50:45.240Z,49.90
2018-07-16T14:53:12.405Z,50.00
2018-07-16T14:55:39.593Z,51.70
2018-07-16T14:58:06.765Z,53.40
2018-07-16T15:03:01.219Z,51.70
2018-07-16T15:05:28.392Z,51.10
2018-07-16T15:07:55.570Z,50.70
2018-07-16T15:10:22.745Z,47.50
2018-07-16T15:12:49.928Z,51.20
2018-07-16T15:15:17.221Z,55.20
2018-07-16T15:17:44.384Z,52.10
2018-07-16T15:20:11.635Z,50.40
2018-07-16T15:22:38.745Z,47.10
2018-07-16T15:25:06.080Z,51.70
2018-07-16T15:27:33.260Z,50.50
2018-07-16T15:30:00.475Z,47.60
2018-07-16T15:32:27.637Z,50.70
2018-07-16T15:34:55.026Z,49.30
2018-07-16T15:37:22.225Z,49.80
2018-07-16T15:39:49.421Z,47.80
2018-07-16T15:42:16.580Z,46.00
2018-07-16T15:44:43.745Z,47.20
2018-07-16T15:47:11.157Z,46.40
2018-07-16T15:49:38.522Z,47.80
2018-07-16T15:52:06.200Z,47.80
2018-07-16T15:54:33.364Z,49.00
2018-07-16T15:57:00.557Z,46.80
2018-07-16T15:59:27.737Z,48.30
2018-07-16T16:01:55.001Z,50.20
2018-07-16T16:04:22.189Z,51.30
2018-07-16T16:09:16.552Z,43.40
2018-07-16T16:11:43.774Z,46.00
2018-07-16T16:14:10.937Z,45.30
2018-07-16T16:16:38.361Z,49.50
2018-07-16T16:19:05.538Z,49.70
2018-07-16T16:21:33.025Z,50.20
2018-07-16T16:24:00.409Z,50.20
2018-07-16T16:26:27.693Z,43.20
2018-07-16T16:28:54.904Z,49.20
2018-07-16T16:31:22.212Z,53.30
2018-07-16T16:33:49.380Z,46.80
2018-07-16T16:36:16.561Z,47.80
2018-07-16T16:38:43.742Z,50.10
2018-07-16T16:41:10.952Z,51.60
2018-07-16T16:43:38.122Z,54.30
2018-07-16T16:46:05.703Z,51.50
2018-07-16T16:48:32.902Z,50.90
2018-07-16T16:51:00.120Z,51.00
2018-07-16T16:53:27.309Z,52.20
2018-07-16T16:55:54.553Z,52.50
2018-07-16T16:58:21.862Z,57.60
2018-07-16T17:03:16.531Z,57.60
2018-07-16T17:05:43.727Z,58.90
2018-07-16T17:08:10.905Z,59.50
2018-07-16T17:10:38.081Z,58.00
2018-07-16T17:13:05.245Z,60.40
2018-07-16T17:15:32.493Z,62.60
2018-07-16T17:17:59.722Z,61.60
2018-07-16T17:20:26.921Z,62.50
2018-07-16T17:22:54.145Z,63.60
2018-07-16T17:25:21.329Z,63.90
2018-07-16T17:27:49.287Z,63.30
2018-07-16T17:30:17.616Z,63.80
2018-07-16T17:32:44.872Z,64.60
2018-07-16T17:37:39.265Z,63.00
2018-07-16T17:40:06.489Z,64.10
2018-07-16T17:42:33.694Z,63.30
2018-07-16T17:45:00.917Z,63.20
2018-07-16T17:47:28.084Z,64.20
2018-07-16T17:49:55.289Z,63.60
2018-07-16T17:52:22.479Z,62.40
2018-07-16T17:54:49.704Z,58.00
2018-07-16T17:57:16.864Z,58.10
2018-07-16T17:59:44.049Z,57.30
2018-07-16T18:02:11.337Z,58.50
2018-07-16T18:04:38.584Z,59.10
2018-07-16T18:07:05.850Z,60.20
2018-07-16T18:09:33.090Z,60.60
2018-07-16T18:12:00.381Z,61.60
2018-07-16T18:14:27.621Z,62.80
2018-07-16T18:16:54.901Z,63.70
2018-07-16T18:19:22.061Z,61.60
2018-07-16T18:21:49.351Z,63.20
2018-07-16T18:24:16.573Z,63.80
2018-07-16T18:26:43.857Z,63.20
2018-07-16T18:29:11.021Z,63.80
2018-07-16T18:31:38.685Z,64.20
2018-07-16T18:34:06.353Z,64.00
2018-07-16T18:36:33.553Z,64.10
2018-07-16T18:39:00.804Z,64.20
2018-07-16T18:41:27.968Z,63.60
2018-07-16T18:43:55.241Z,63.90
2018-07-16T18:46:22.478Z,62.50
2018-07-16T18:48:49.833Z,62.60
2018-07-16T18:51:17.037Z,62.20
2018-07-16T18:53:44.241Z,62.20
2018-07-16T18:56:11.465Z,62.30
2018-07-16T18:58:38.667Z,62.70
2018-07-16T19:01:05.977Z,62.60
2018-07-16T19:03:33.187Z,63.10
2018-07-16T19:06:00.375Z,62.90
2018-07-16T19:08:27.718Z,62.80
2018-07-16T19:10:54.945Z,62.60
2018-07-16T19:13:22.125Z,62.40
2018-07-16T19:15:49.345Z,62.50
2018-07-16T19:18:16.539Z,63.00
2018-07-16T19:20:43.740Z,63.20
2018-07-16T19:23:10.937Z,63.30
2018-07-16T19:25:38.117Z,63.10
2018-07-16T19:28:05.332Z,61.50
2018-07-16T19:30:32.573Z,60.80
2018-07-16T19:32:59.785Z,60.90
2018-07-16T19:35:27.059Z,60.40
2018-07-16T19:37:54.308Z,60.80
2018-07-16T19:40:21.701Z,62.00
2018-07-16T19:42:48.909Z,61.30
2018-07-16T19:45:16.087Z,62.40
2018-07-16T19:47:43.313Z,63.10
2018-07-16T19:50:10.525Z,63.00
2018-07-16T19:52:37.921Z,62.40
2018-07-16T19:55:05.244Z,62.90
2018-07-16T19:57:32.553Z,62.40
2018-07-16T19:59:59.720Z,60.30
2018-07-16T20:02:26.914Z,59.80
2018-07-16T20:04:54.072Z,59.50
2018-07-16T20:07:21.404Z,60.30
2018-07-16T20:09:48.564Z,60.40
2018-07-16T20:12:26.273Z,61.10
2018-07-16T20:14:53.518Z,62.10
2018-07-16T20:17:20.669Z,61.30
2018-07-16T20:19:47.873Z,59.80
2018-07-16T20:22:15.341Z,57.70
2018-07-16T20:24:42.654Z,60.10
2018-07-16T20:27:09.926Z,57.50
2018-07-16T20:29:37.116Z,58.80
2018-07-16T20:32:04.444Z,58.80
2018-07-16T20:34:31.668Z,60.20
2018-07-16T20:36:58.937Z,59.60
2018-07-16T20:39:26.121Z,60.30
2018-07-16T20:44:20.829Z,59.20
2018-07-16T20:46:48.097Z,60.40
2018-07-16T20:49:15.256Z,59.50
2018-07-16T20:51:42.431Z,58.50
2018-07-16T20:54:09.626Z,59.10
2018-07-16T20:56:36.869Z,60.50
2018-07-16T20:59:04.289Z,59.70
2018-07-16T21:01:31.592Z,60.50
2018-07-16T21:03:58.765Z,60.90
2018-07-16T21:06:26.013Z,60.90
2018-07-16T21:08:53.172Z,60.90
2018-07-16T21:11:20.365Z,59.50
2018-07-16T21:13:47.541Z,58.90
2018-07-16T21:16:14.748Z,58.70
2018-07-16T21:18:41.941Z,58.70
2018-07-16T21:21:09.108Z,58.00
2018-07-16T21:23:36.453Z,58.10
2018-07-16T21:26:03.785Z,58.00
2018-07-16T21:28:30.988Z,57.00
2018-07-16T21:30:58.148Z,57.70
2018-07-16T21:33:25.346Z,56.10
2018-07-16T21:35:52.541Z,55.90
2018-07-16T21:38:19.721Z,55.90
2018-07-16T21:40:47.125Z,57.10
2018-07-16T21:43:14.290Z,57.10
2018-07-16T21:45:41.473Z,58.80
2018-07-16T21:48:08.694Z,59.50
2018-07-16T21:50:35.964Z,60.30
2018-07-16T21:53:03.181Z,61.10
2018-07-16T21:55:30.393Z,60.20
2018-07-16T21:57:57.661Z,62.00
2018-07-16T22:00:27.322Z,60.60
2018-07-16T22:02:54.553Z,60.80
2018-07-16T22:05:22.393Z,59.80
2018-07-16T22:07:49.593Z,60.50
2018-07-16T22:10:16.785Z,61.10
2018-07-16T22:12:43.993Z,61.20
2018-07-16T22:15:15.553Z,61.40
2018-07-16T22:17:42.748Z,65.40
2018-07-16T22:20:10.003Z,66.20
2018-07-16T22:22:37.181Z,65.50
2018-07-16T22:25:04.365Z,65.00
2018-07-16T22:27:31.880Z,64.90
2018-07-16T22:29:59.078Z,66.10
2018-07-16T22:32:26.253Z,66.20
2018-07-16T22:34:53.424Z,66.60
2018-07-16T22:37:20.592Z,66.80
2018-07-16T22:39:47.781Z,66.20
2018-07-16T22:42:14.978Z,66.60
2018-07-16T22:44:42.265Z,66.60
2018-07-16T22:49:36.642Z,65.60
2018-07-16T22:52:03.833Z,66.10
2018-07-16T22:54:30.992Z,66.30
2018-07-16T22:56:58.247Z,67.10
2018-07-16T22:59:25.419Z,67.80
2018-07-16T23:01:52.667Z,66.80
2018-07-16T23:04:20.605Z,68.30
2018-07-16T23:06:47.909Z,68.20
2018-07-16T23:09:15.097Z,67.40
2018-07-16T23:11:42.271Z,67.30
2018-07-16T23:14:09.447Z,67.30
2018-07-16T23:16:36.614Z,68.30
2018-07-16T23:19:03.795Z,67.60
2018-07-16T23:21:30.990Z,67.30
2018-07-16T23:23:58.160Z,67.30
2018-07-16T23:26:25.315Z,67.20
2018-07-16T23:28:52.530Z,67.30
2018-07-16T23:31:19.680Z,67.70
2018-07-16T23:38:41.209Z,68.40
2018-07-16T23:41:08.452Z,69.10
2018-07-16T23:43:35.623Z,69.50
2018-07-16T23:46:02.843Z,70.30
2018-07-16T23:48:30.024Z,69.90
2018-07-16T23:50:57.216Z,69.50
2018-07-16T23:53:24.400Z,69.10
2018-07-16T23:55:51.613Z,68.30
2018-07-16T23:58:18.719Z,68.60
